Wetterdaten: Woche 14.09.20 - 20.09.20 (KW38)
Datum Zeit Temp. Aussen Temp. o. S. Temp +5cm Feuchte Auss Luftdruck Regen Sonnenschein Regendauer Solar Windben Empfang
14.09.2020 00:00 14,6 C 12,9 C 12,4 C 89 % 1025,7 hPa 0,0 l/m 0,00 h 0,00 h 0 W/m 0,0 km/h (0 Bft) 97,88 %
14.09.2020 01:00 14,0 C 12,3 C 12,1 C 90 % 1025,5 hPa 0,0 l/m 0,00 h 0,00 h 0 W/m 0,0 km/h (0 Bft) 97,30 %
14.09.2020 02:00 13,6 C 12,1 C 11,7 C 92 % 1025,3 hPa 0,0 l/m 0,00 h 0,00 h 0 W/m 0,0 km/h (0 Bft) 95,73 %
14.09.2020 03:00 13,0 C 11,7 C 11,2 C 92 % 1025,2 hPa 0,0 l/m 0,00 h 0,00 h 0 W/m 0,0 km/h (0 Bft) 99,50 %
14.09.2020 04:00 13,0 C 12,1 C 11,5 C 94 % 1025,0 hPa 0,0 l/m 0,00 h 0,00 h 0 W/m 1,1 km/h (1 Bft) 96,61 %
14.09.2020 05:00 13,6 C 12,8 C 12,3 C 96 % 1024,9 hPa 0,0 l/m 0,00 h 0,00 h 0 W/m 1,3 km/h (1 Bft) 95,99 %
14.09.2020 06:00 13,6 C 13,3 C 12,7 C 96 % 1024,7 hPa 0,0 l/m 0,00 h 0,00 h 0 W/m 5,4 km/h (1 Bft) 97,05 %
14.09.2020 07:00 13,8 C 13,1 C 12,7 C 94 % 1024,9 hPa 0,0 l/m 0,00 h 0,00 h 12 W/m 5,7 km/h (1 Bft) 99,36 %
14.09.2020 08:00 14,1 C 14,3 C 13,4 C 93 % 1025,0 hPa 0,0 l/m 0,00 h 0,00 h 30 W/m 5,4 km/h (1 Bft) 97,86 %
14.09.2020 09:00 16,6 C 20,7 C 17,0 C 88 % 1025,2 hPa 0,0 l/m 0,60 h 0,00 h 242 W/m 12,2 km/h (2 Bft) 95,45 %
14.09.2020 10:00 21,9 C 28,0 C 22,4 C 72 % 1025,3 hPa 0,0 l/m 1,00 h 0,00 h 483 W/m 13,2 km/h (3 Bft) 98,65 %
14.09.2020 11:00 25,2 C 30,6 C 22,7 C 63 % 1025,1 hPa 0,0 l/m 1,00 h 0,00 h 602 W/m 14,9 km/h (3 Bft) 98,59 %
14.09.2020 12:00 27,8 C 33,8 C 25,1 C 58 % 1024,7 hPa 0,0 l/m 1,00 h 0,00 h 657 W/m 12,8 km/h (3 Bft) 96,69 %
14.09.2020 13:00 29,8 C 34,7 C 27,4 C 54 % 1024,3 hPa 0,0 l/m 1,00 h 0,00 h 683 W/m 14,5 km/h (3 Bft) 96,73 %
14.09.2020 14:00 30,8 C 35,3 C 28,6 C 50 % 1023,6 hPa 0,0 l/m 1,00 h 0,00 h 693 W/m 19,0 km/h (3 Bft) 98,64 %
14.09.2020 15:00 31,5 C 35,2 C 29,3 C 48 % 1022,9 hPa 0,0 l/m 1,00 h 0,00 h 620 W/m 17,1 km/h (3 Bft) 97,52 %
14.09.2020 16:00 32,1 C 34,3 C 30,6 C 45 % 1022,2 hPa 0,0 l/m 0,93 h 0,00 h 467 W/m 18,0 km/h (3 Bft) 96,10 %
14.09.2020 17:00 31,5 C 32,1 C 27,1 C 48 % 1021,8 hPa 0,0 l/m 0,87 h 0,00 h 306 W/m 7,3 km/h (2 Bft) 96,87 %
14.09.2020 18:00 30,4 C 28,2 C 24,9 C 52 % 1021,4 hPa 0,0 l/m 0,43 h 0,00 h 92 W/m 3,9 km/h (1 Bft) 96,95 %
14.09.2020 19:00 26,8 C 23,1 C 21,4 C 67 % 1021,1 hPa 0,0 l/m 0,53 h 0,00 h 26 W/m 0,0 km/h (0 Bft) 98,29 %
14.09.2020 20:00 23,0 C 19,6 C 18,5 C 74 % 1021,1 hPa 0,0 l/m 0,00 h 0,00 h 0 W/m 0,0 km/h (0 Bft) 97,80 %
14.09.2020 21:00 20,7 C 18,6 C 17,2 C 78 % 1021,4 hPa 0,0 l/m 0,00 h 0,00 h 0 W/m 0,0 km/h (0 Bft) 96,30 %
14.09.2020 22:00 19,7 C 18,6 C 16,8 C 79 % 1021,5 hPa 0,0 l/m 0,00 h 0,00 h 0 W/m 1,1 km/h (0 Bft) 98,15 %
14.09.2020 23:00 20,3 C 19,7 C 17,1 C 76 % 1021,4 hPa 0,0 l/m 0,00 h 0,00 h 0 W/m 3,2 km/h (1 Bft) 98,36 %
15.09.2020 00:00 20,2 C 19,3 C 17,2 C 75 % 1021,3 hPa 0,0 l/m 0,00 h 0,00 h 0 W/m 4,8 km/h (1 Bft) 96,38 %
15.09.2020 01:00 20,6 C 19,6 C 18,7 C 74 % 1021,1 hPa 0,0 l/m 0,00 h 0,00 h 0 W/m 9,8 km/h (2 Bft) 98,51 %
15.09.2020 02:00 20,5 C 19,1 C 18,5 C 74 % 1020,8 hPa 0,0 l/m 0,00 h 0,00 h 0 W/m 9,6 km/h (2 Bft) 97,65 %
15.09.2020 03:00 19,8 C 18,1 C 17,3 C 76 % 1020,5 hPa 0,0 l/m 0,00 h 0,00 h 0 W/m 6,5 km/h (2 Bft) 97,37 %
15.09.2020 04:00 18,9 C 17,3 C 16,8 C 79 % 1020,2 hPa 0,0 l/m 0,00 h 0,00 h 0 W/m 8,7 km/h (2 Bft) 97,79 %
15.09.2020 05:00 18,3 C 16,9 C 16,6 C 81 % 1020,1 hPa 0,0 l/m 0,00 h 0,00 h 0 W/m 9,6 km/h (2 Bft) 97,86 %
15.09.2020 06:00 17,8 C 16,6 C 16,1 C 83 % 1019,9 hPa 0,0 l/m 0,00 h 0,00 h 0 W/m 8,2 km/h (2 Bft) 97,68 %
15.09.2020 07:00 17,4 C 16,3 C 15,9 C 84 % 1020,0 hPa 0,0 l/m 0,00 h 0,00 h 11 W/m 9,0 km/h (2 Bft) 97,58 %
15.09.2020 08:00 17,5 C 17,3 C 16,4 C 85 % 1020,0 hPa 0,0 l/m 0,00 h 0,00 h 36 W/m 10,8 km/h (2 Bft) 97,23 %
15.09.2020 09:00 19,3 C 22,4 C 19,2 C 82 % 1020,1 hPa 0,0 l/m 0,60 h 0,00 h 224 W/m 12,1 km/h (2 Bft) 98,23 %
15.09.2020 10:00 23,4 C 28,7 C 23,5 C 71 % 1020,4 hPa 0,0 l/m 1,00 h 0,00 h 455 W/m 12,2 km/h (2 Bft) 98,86 %
15.09.2020 11:00 26,3 C 32,2 C 23,7 C 63 % 1020,4 hPa 0,0 l/m 1,00 h 0,00 h 579 W/m 11,3 km/h (2 Bft) 94,80 %
15.09.2020 12:00 29,1 C 35,3 C 25,9 C 59 % 1020,0 hPa 0,0 l/m 1,00 h 0,00 h 668 W/m 10,4 km/h (2 Bft) 99,25 %
15.09.2020 13:00 31,3 C 37,5 C 28,0 C 55 % 1019,5 hPa 0,0 l/m 1,00 h 0,00 h 698 W/m 6,7 km/h (2 Bft) 98,43 %
15.09.2020 14:00 32,8 C 38,1 C 29,8 C 50 % 1019,0 hPa 0,0 l/m 1,00 h 0,00 h 679 W/m 7,3 km/h (2 Bft) 97,86 %
15.09.2020 15:00 33,8 C 38,6 C 30,0 C 47 % 1018,5 hPa 0,0 l/m 1,00 h 0,00 h 615 W/m 6,8 km/h (2 Bft) 95,97 %
15.09.2020 16:00 34,6 C 38,0 C 31,7 C 46 % 1018,0 hPa 0,0 l/m 1,00 h 0,00 h 492 W/m 2,7 km/h (1 Bft) 97,15 %
15.09.2020 17:00 34,5 C 35,5 C 27,3 C 46 % 1017,7 hPa 0,0 l/m 0,87 h 0,00 h 314 W/m 1,1 km/h (0 Bft) 95,88 %
15.09.2020 18:00 31,4 C 28,2 C 23,7 C 54 % 1017,6 hPa 0,0 l/m 0,00 h 0,00 h 41 W/m 0,0 km/h (0 Bft) 95,60 %
15.09.2020 19:00 27,1 C 23,5 C 20,6 C 69 % 1017,6 hPa 0,0 l/m 0,00 h 0,00 h 11 W/m 0,0 km/h (0 Bft) 99,79 %
15.09.2020 20:00 24,0 C 21,1 C 19,1 C 74 % 1017,8 hPa 0,0 l/m 0,00 h 0,00 h 0 W/m 0,0 km/h (0 Bft) 97,94 %
15.09.2020 21:00 22,2 C 20,3 C 18,3 C 75 % 1018,0 hPa 0,0 l/m 0,00 h 0,00 h 0 W/m 0,0 km/h (0 Bft) 95,58 %
15.09.2020 22:00 21,2 C 19,2 C 17,6 C 78 % 1018,0 hPa 0,0 l/m 0,00 h 0,00 h 0 W/m 0,0 km/h (0 Bft) 99,07 %
15.09.2020 23:00 20,2 C 18,6 C 17,1 C 79 % 1018,2 hPa 0,0 l/m 0,00 h 0,00 h 0 W/m 0,0 km/h (0 Bft) 97,15 %
16.09.2020 00:00 19,6 C 18,3 C 16,9 C 81 % 1018,3 hPa 0,0 l/m 0,00 h 0,00 h 0 W/m 0,4 km/h (0 Bft) 98,49 %
16.09.2020 01:00 19,0 C 17,1 C 16,3 C 83 % 1018,3 hPa 0,0 l/m 0,00 h 0,00 h 0 W/m 0,9 km/h (0 Bft) 97,52 %
16.09.2020 02:00 18,1 C 16,1 C 15,5 C 84 % 1018,1 hPa 0,0 l/m 0,00 h 0,00 h 0 W/m 0,0 km/h (0 Bft) 96,44 %
16.09.2020 03:00 17,3 C 16,4 C 15,4 C 87 % 1017,9 hPa 0,0 l/m 0,00 h 0,00 h 0 W/m 2,0 km/h (1 Bft) 99,36 %
16.09.2020 04:00 17,6 C 17,1 C 15,7 C 86 % 1017,8 hPa 0,0 l/m 0,00 h 0,00 h 0 W/m 2,6 km/h (1 Bft) 96,86 %
16.09.2020 05:00 17,9 C 16,5 C 15,5 C 84 % 1017,7 hPa 0,0 l/m 0,00 h 0,00 h 0 W/m 2,0 km/h (1 Bft) 96,37 %
16.09.2020 06:00 17,3 C 15,4 C 14,5 C 85 % 1017,8 hPa 0,0 l/m 0,00 h 0,00 h 0 W/m 0,3 km/h (0 Bft) 99,04 %
16.09.2020 07:00 16,4 C 15,0 C 13,9 C 87 % 1018,3 hPa 0,0 l/m 0,00 h 0,00 h 13 W/m 0,1 km/h (0 Bft) 98,48 %
16.09.2020 08:00 16,4 C 17,0 C 15,1 C 91 % 1018,7 hPa 0,0 l/m 0,00 h 0,00 h 38 W/m 1,6 km/h (1 Bft) 96,58 %
16.09.2020 09:00 18,4 C 22,4 C 18,5 C 91 % 1018,9 hPa 0,0 l/m 0,60 h 0,00 h 215 W/m 6,1 km/h (2 Bft) 96,52 %
16.09.2020 10:00 22,9 C 27,6 C 23,0 C 80 % 1019,0 hPa 0,0 l/m 0,80 h 0,00 h 396 W/m 8,1 km/h (2 Bft) 98,22 %
16.09.2020 11:00 25,1 C 28,9 C 22,6 C 75 % 1019,1 hPa 0,0 l/m 0,73 h 0,00 h 454 W/m 6,3 km/h (2 Bft) 98,22 %
16.09.2020 12:00 27,0 C 32,1 C 23,8 C 70 % 1019,2 hPa 0,0 l/m 0,87 h 0,00 h 593 W/m 8,8 km/h (2 Bft) 96,50 %
16.09.2020 13:00 28,0 C 32,7 C 24,9 C 67 % 1019,4 hPa 0,0 l/m 1,00 h 0,00 h 648 W/m 11,0 km/h (2 Bft) 97,23 %
16.09.2020 14:00 28,2 C 32,4 C 25,2 C 66 % 1019,7 hPa 0,0 l/m 1,00 h 0,00 h 605 W/m 10,7 km/h (2 Bft) 99,06 %
16.09.2020 15:00 28,5 C 31,9 C 25,5 C 65 % 1019,7 hPa 0,0 l/m 1,00 h 0,00 h 537 W/m 11,1 km/h (2 Bft) 98,39 %
16.09.2020 16:00 28,4 C 30,5 C 27,2 C 61 % 1019,8 hPa 0,0 l/m 1,00 h 0,00 h 427 W/m 11,7 km/h (2 Bft) 96,00 %
16.09.2020 17:00 27,1 C 27,6 C 24,3 C 63 % 1020,1 hPa 0,0 l/m 0,77 h 0,00 h 254 W/m 8,7 km/h (2 Bft) 97,31 %
16.09.2020 18:00 25,1 C 23,2 C 22,1 C 64 % 1020,6 hPa 0,0 l/m 0,00 h 0,00 h 48 W/m 7,3 km/h (2 Bft) 98,08 %
16.09.2020 19:00 23,1 C 21,1 C 20,5 C 66 % 1021,2 hPa 0,0 l/m 0,00 h 0,00 h 15 W/m 6,0 km/h (2 Bft) 98,08 %
16.09.2020 20:00 21,5 C 19,5 C 19,3 C 69 % 1022,0 hPa 0,0 l/m 0,00 h 0,00 h 0 W/m 5,7 km/h (1 Bft) 96,67 %
16.09.2020 21:00 20,3 C 18,6 C 18,5 C 77 % 1023,0 hPa 0,0 l/m 0,00 h 0,00 h 0 W/m 7,0 km/h (2 Bft) 97,82 %
16.09.2020 22:00 19,1 C 17,3 C 17,5 C 83 % 1024,0 hPa 0,0 l/m 0,00 h 0,00 h 0 W/m 7,8 km/h (2 Bft) 99,13 %
16.09.2020 23:00 17,7 C 16,1 C 16,4 C 86 % 1024,8 hPa 0,0 l/m 0,00 h 0,00 h 0 W/m 6,2 km/h (2 Bft) 96,37 %
17.09.2020 00:00 16,8 C 15,8 C 16,0 C 87 % 1025,5 hPa 0,0 l/m 0,00 h 0,00 h 0 W/m 6,5 km/h (2 Bft) 96,79 %
17.09.2020 01:00 16,3 C 15,3 C 15,6 C 85 % 1026,0 hPa 0,0 l/m 0,00 h 0,00 h 0 W/m 6,4 km/h (2 Bft) 98,86 %
17.09.2020 02:00 15,6 C 14,2 C 14,6 C 84 % 1026,3 hPa 0,0 l/m 0,00 h 0,00 h 0 W/m 5,6 km/h (1 Bft) 98,86 %
17.09.2020 03:00 14,4 C 12,8 C 13,4 C 85 % 1026,5 hPa 0,0 l/m 0,00 h 0,00 h 0 W/m 3,4 km/h (1 Bft) 93,61 %
17.09.2020 04:00 13,5 C 12,0 C 12,7 C 88 % 1026,6 hPa 0,0 l/m 0,00 h 0,00 h 0 W/m 2,9 km/h (1 Bft) 96,83 %
17.09.2020 05:00 12,8 C 11,7 C 12,2 C 88 % 1026,5 hPa 0,0 l/m 0,00 h 0,00 h 0 W/m 2,9 km/h (1 Bft) 99,51 %
17.09.2020 06:00 12,5 C 11,4 C 11,9 C 88 % 1026,7 hPa 0,0 l/m 0,00 h 0,00 h 0 W/m 1,4 km/h (1 Bft) 96,13 %
17.09.2020 07:00 11,7 C 9,8 C 10,0 C 87 % 1027,1 hPa 0,0 l/m 0,00 h 0,00 h 16 W/m 0,2 km/h (0 Bft) 98,71 %
17.09.2020 08:00 11,2 C 11,1 C 10,7 C 90 % 1027,6 hPa 0,0 l/m 0,00 h 0,00 h 47 W/m 2,0 km/h (1 Bft) 96,46 %
17.09.2020 09:00 12,5 C 15,6 C 13,2 C 91 % 1028,1 hPa 0,0 l/m 0,57 h 0,00 h 220 W/m 9,0 km/h (2 Bft) 97,00 %
17.09.2020 10:00 15,7 C 20,8 C 16,7 C 81 % 1028,3 hPa 0,0 l/m 1,00 h 0,00 h 453 W/m 10,5 km/h (2 Bft) 99,14 %
17.09.2020 11:00 17,7 C 22,7 C 15,9 C 73 % 1028,4 hPa 0,0 l/m 1,00 h 0,00 h 576 W/m 14,2 km/h (3 Bft) 96,87 %
17.09.2020 12:00 18,9 C 24,2 C 17,2 C 66 % 1028,3 hPa 0,0 l/m 1,00 h 0,00 h 668 W/m 13,6 km/h (3 Bft) 99,19 %
17.09.2020 13:00 20,6 C 25,8 C 19,6 C 61 % 1028,0 hPa 0,0 l/m 1,00 h 0,00 h 709 W/m 13,1 km/h (3 Bft) 97,08 %
17.09.2020 14:00 21,5 C 26,1 C 20,5 C 56 % 1027,4 hPa 0,0 l/m 1,00 h 0,00 h 690 W/m 14,8 km/h (3 Bft) 95,33 %
17.09.2020 15:00 22,0 C 25,9 C 20,6 C 54 % 1026,8 hPa 0,0 l/m 1,00 h 0,00 h 613 W/m 13,3 km/h (3 Bft) 99,50 %
17.09.2020 16:00 22,1 C 24,6 C 23,1 C 53 % 1026,2 hPa 0,0 l/m 1,00 h 0,00 h 476 W/m 11,7 km/h (2 Bft) 97,56 %
17.09.2020 17:00 21,1 C 21,6 C 19,2 C 52 % 1026,0 hPa 0,0 l/m 0,80 h 0,00 h 278 W/m 10,7 km/h (2 Bft) 95,81 %
17.09.2020 18:00 18,5 C 16,9 C 15,7 C 57 % 1026,1 hPa 0,0 l/m 0,00 h 0,00 h 61 W/m 11,5 km/h (2 Bft) 99,79 %
17.09.2020 19:00 16,9 C 15,5 C 14,8 C 60 % 1026,1 hPa 0,0 l/m 0,03 h 0,00 h 21 W/m 9,7 km/h (2 Bft) 96,58 %
17.09.2020 20:00 15,9 C 14,4 C 13,9 C 64 % 1026,3 hPa 0,0 l/m 0,00 h 0,00 h 0 W/m 8,0 km/h (2 Bft) 97,08 %
17.09.2020 21:00 15,3 C 13,8 C 13,6 C 67 % 1026,7 hPa 0,0 l/m 0,00 h 0,00 h 0 W/m 8,4 km/h (2 Bft) 98,15 %
17.09.2020 22:00 14,3 C 12,8 C 12,7 C 68 % 1026,8 hPa 0,0 l/m 0,00 h 0,00 h 0 W/m 3,2 km/h (1 Bft) 96,37 %
17.09.2020 23:00 13,5 C 12,1 C 12,1 C 71 % 1026,8 hPa 0,0 l/m 0,00 h 0,00 h 0 W/m 4,4 km/h (1 Bft) 99,22 %
18.09.2020 00:00 12,8 C 11,5 C 11,6 C 72 % 1026,5 hPa 0,0 l/m 0,00 h 0,00 h 0 W/m 4,8 km/h (1 Bft) 96,68 %
18.09.2020 01:00 12,0 C 10,4 C 10,6 C 74 % 1026,2 hPa 0,0 l/m 0,00 h 0,00 h 0 W/m 0,9 km/h (0 Bft) 96,80 %
18.09.2020 02:00 11,0 C 9,3 C 9,5 C 77 % 1025,9 hPa 0,0 l/m 0,00 h 0,00 h 0 W/m 0,3 km/h (0 Bft) 97,63 %
18.09.2020 03:00 10,2 C 8,6 C 8,9 C 80 % 1025,6 hPa 0,0 l/m 0,00 h 0,00 h 0 W/m 0,1 km/h (0 Bft) 99,58 %
18.09.2020 04:00 9,4 C 7,8 C 7,8 C 82 % 1025,3 hPa 0,0 l/m 0,00 h 0,00 h 0 W/m 0,0 km/h (0 Bft) 95,87 %
18.09.2020 05:00 8,7 C 7,3 C 7,2 C 83 % 1025,0 hPa 0,0 l/m 0,00 h 0,00 h 0 W/m 0,0 km/h (0 Bft) 95,43 %
18.09.2020 06:00 8,3 C 7,2 C 7,3 C 85 % 1025,0 hPa 0,0 l/m 0,00 h 0,00 h 0 W/m 0,2 km/h (0 Bft) 98,20 %
18.09.2020 07:00 8,3 C 7,7 C 7,6 C 87 % 1025,1 hPa 0,0 l/m 0,00 h 0,00 h 14 W/m 0,1 km/h (0 Bft) 96,82 %
18.09.2020 08:00 8,7 C 9,1 C 8,7 C 88 % 1025,3 hPa 0,0 l/m 0,00 h 0,00 h 36 W/m 1,2 km/h (1 Bft) 97,51 %
18.09.2020 09:00 10,4 C 14,7 C 11,0 C 87 % 1025,4 hPa 0,0 l/m 0,57 h 0,00 h 221 W/m 1,8 km/h (1 Bft) 97,51 %
18.09.2020 10:00 15,0 C 22,5 C 15,7 C 75 % 1025,4 hPa 0,0 l/m 1,00 h 0,00 h 464 W/m 6,8 km/h (2 Bft) 98,72 %
18.09.2020 11:00 18,9 C 25,9 C 16,0 C 66 % 1025,1 hPa 0,0 l/m 1,00 h 0,00 h 590 W/m 6,4 km/h (2 Bft) 98,13 %
18.09.2020 12:00 21,7 C 28,4 C 18,4 C 60 % 1024,5 hPa 0,0 l/m 1,00 h 0,00 h 677 W/m 8,2 km/h (2 Bft) 97,61 %
18.09.2020 13:00 24,1 C 30,1 C 21,6 C 55 % 1023,8 hPa 0,0 l/m 1,00 h 0,00 h 708 W/m 7,7 km/h (2 Bft) 97,87 %
18.09.2020 14:00 25,3 C 30,5 C 22,6 C 54 % 1023,3 hPa 0,0 l/m 1,00 h 0,00 h 686 W/m 8,7 km/h (2 Bft) 97,22 %
18.09.2020 15:00 25,9 C 30,0 C 23,6 C 50 % 1022,6 hPa 0,0 l/m 1,00 h 0,00 h 607 W/m 11,1 km/h (2 Bft) 96,94 %
18.09.2020 16:00 26,3 C 29,1 C 27,2 C 47 % 1022,0 hPa 0,0 l/m 1,00 h 0,00 h 478 W/m 11,9 km/h (2 Bft) 97,85 %
18.09.2020 17:00 25,6 C 25,7 C 22,4 C 48 % 1021,6 hPa 0,0 l/m 0,77 h 0,00 h 274 W/m 9,0 km/h (2 Bft) 97,79 %
18.09.2020 18:00 22,4 C 20,1 C 19,1 C 53 % 1021,4 hPa 0,0 l/m 0,00 h 0,00 h 51 W/m 7,3 km/h (2 Bft) 97,64 %
18.09.2020 19:00 20,0 C 17,4 C 16,9 C 57 % 1021,5 hPa 0,0 l/m 0,00 h 0,00 h 17 W/m 3,4 km/h (1 Bft) 97,51 %
18.09.2020 20:00 17,8 C 15,2 C 14,9 C 61 % 1021,6 hPa 0,0 l/m 0,00 h 0,00 h 0 W/m 0,7 km/h (0 Bft) 97,65 %
18.09.2020 21:00 16,1 C 14,1 C 13,9 C 65 % 1021,6 hPa 0,0 l/m 0,00 h 0,00 h 0 W/m 0,5 km/h (0 Bft) 97,35 %
18.09.2020 22:00 14,8 C 12,9 C 12,5 C 68 % 1021,3 hPa 0,0 l/m 0,00 h 0,00 h 0 W/m 0,0 km/h (0 Bft) 97,43 %
18.09.2020 23:00 13,8 C 12,2 C 12,0 C 71 % 1021,3 hPa 0,0 l/m 0,00 h 0,00 h 0 W/m 0,1 km/h (0 Bft) 96,01 %
19.09.2020 00:00 13,0 C 11,3 C 11,0 C 73 % 1021,1 hPa 0,0 l/m 0,00 h 0,00 h 0 W/m 0,0 km/h (0 Bft) 98,75 %
19.09.2020 01:00 12,1 C 10,6 C 10,6 C 76 % 1020,9 hPa 0,0 l/m 0,00 h 0,00 h 0 W/m 0,2 km/h (0 Bft) 98,85 %
19.09.2020 02:00 11,5 C 10,1 C 10,2 C 79 % 1020,6 hPa 0,0 l/m 0,00 h 0,00 h 0 W/m 0,0 km/h (0 Bft) 93,73 %
19.09.2020 03:00 10,9 C 9,6 C 9,8 C 81 % 1020,3 hPa 0,0 l/m 0,00 h 0,00 h 0 W/m 0,0 km/h (0 Bft) 97,51 %
19.09.2020 04:00 10,3 C 9,1 C 9,4 C 83 % 1019,7 hPa 0,0 l/m 0,00 h 0,00 h 0 W/m 0,4 km/h (0 Bft) 98,45 %
19.09.2020 05:00 9,8 C 8,7 C 8,9 C 84 % 1019,4 hPa 0,0 l/m 0,00 h 0,00 h 0 W/m 0,0 km/h (0 Bft) 97,33 %
19.09.2020 06:00 9,4 C 8,3 C 8,4 C 85 % 1019,0 hPa 0,0 l/m 0,00 h 0,00 h 0 W/m 0,0 km/h (0 Bft) 97,36 %
19.09.2020 07:00 9,1 C 8,2 C 8,3 C 86 % 1018,9 hPa 0,0 l/m 0,00 h 0,00 h 13 W/m 0,0 km/h (0 Bft) 97,37 %
19.09.2020 08:00 9,3 C 9,8 C 9,2 C 88 % 1019,0 hPa 0,0 l/m 0,00 h 0,00 h 37 W/m 0,2 km/h (0 Bft) 95,88 %
19.09.2020 09:00 11,1 C 15,7 C 11,6 C 89 % 1019,1 hPa 0,0 l/m 0,53 h 0,00 h 205 W/m 3,2 km/h (1 Bft) 99,15 %
19.09.2020 10:00 17,1 C 22,9 C 17,8 C 66 % 1019,1 hPa 0,0 l/m 1,00 h 0,00 h 441 W/m 16,2 km/h (3 Bft) 96,51 %
19.09.2020 11:00 20,7 C 25,6 C 18,7 C 53 % 1019,0 hPa 0,0 l/m 1,00 h 0,00 h 571 W/m 18,9 km/h (3 Bft) 97,93 %
19.09.2020 12:00 22,6 C 27,8 C 20,8 C 50 % 1018,6 hPa 0,0 l/m 1,00 h 0,00 h 663 W/m 15,1 km/h (3 Bft) 96,18 %
19.09.2020 13:00 24,6 C 29,9 C 23,8 C 46 % 1018,2 hPa 0,0 l/m 1,00 h 0,00 h 697 W/m 13,5 km/h (3 Bft) 96,59 %
19.09.2020 14:00 26,1 C 31,0 C 24,4 C 43 % 1017,7 hPa 0,0 l/m 1,00 h 0,00 h 672 W/m 14,9 km/h (3 Bft) 99,50 %
19.09.2020 15:00 27,3 C 31,9 C 25,4 C 41 % 1017,0 hPa 0,0 l/m 1,00 h 0,00 h 595 W/m 9,4 km/h (2 Bft) 96,23 %
19.09.2020 16:00 28,6 C 31,7 C 29,1 C 39 % 1016,5 hPa 0,0 l/m 1,00 h 0,00 h 472 W/m 8,4 km/h (2 Bft) 97,79 %
19.09.2020 17:00 28,5 C 28,9 C 24,4 C 41 % 1016,1 hPa 0,0 l/m 0,73 h 0,00 h 264 W/m 3,3 km/h (1 Bft) 97,54 %
19.09.2020 18:00 25,7 C 22,5 C 20,6 C 48 % 1016,0 hPa 0,0 l/m 0,00 h 0,00 h 47 W/m 1,5 km/h (1 Bft) 95,84 %
19.09.2020 19:00 22,6 C 19,6 C 18,3 C 52 % 1015,9 hPa 0,0 l/m 0,00 h 0,00 h 16 W/m 0,9 km/h (0 Bft) 99,43 %
19.09.2020 20:00 20,1 C 17,2 C 16,3 C 54 % 1016,2 hPa 0,0 l/m 0,00 h 0,00 h 0 W/m 0,1 km/h (0 Bft) 96,63 %
19.09.2020 21:00 18,3 C 15,8 C 14,9 C 57 % 1016,3 hPa 0,0 l/m 0,00 h 0,00 h 0 W/m 0,1 km/h (0 Bft) 95,96 %
19.09.2020 22:00 16,6 C 14,2 C 13,3 C 61 % 1016,6 hPa 0,0 l/m 0,00 h 0,00 h 0 W/m 0,0 km/h (0 Bft) 99,43 %
19.09.2020 23:00 15,2 C 13,3 C 12,4 C 65 % 1016,9 hPa 0,0 l/m 0,00 h 0,00 h 0 W/m 0,0 km/h (0 Bft) 98,53 %
20.09.2020 00:00 14,2 C 12,2 C 11,6 C 67 % 1016,9 hPa 0,0 l/m 0,00 h 0,00 h 0 W/m 0,0 km/h (0 Bft) 92,96 %
20.09.2020 01:00 13,1 C 11,0 C 10,5 C 70 % 1016,6 hPa 0,0 l/m 0,00 h 0,00 h 0 W/m 0,0 km/h (0 Bft) 96,58 %
20.09.2020 02:00 12,0 C 10,1 C 9,6 C 73 % 1016,6 hPa 0,0 l/m 0,00 h 0,00 h 0 W/m 0,0 km/h (0 Bft) 99,09 %
20.09.2020 03:00 11,0 C 8,8 C 8,5 C 76 % 1016,6 hPa 0,0 l/m 0,00 h 0,00 h 0 W/m 0,0 km/h (0 Bft) 97,37 %
20.09.2020 04:00 10,0 C 8,1 C 7,8 C 80 % 1016,6 hPa 0,0 l/m 0,00 h 0,00 h 0 W/m 0,0 km/h (0 Bft) 97,47 %
20.09.2020 05:00 9,2 C 7,3 C 7,1 C 82 % 1016,8 hPa 0,0 l/m 0,00 h 0,00 h 0 W/m 0,0 km/h (0 Bft) 98,86 %
20.09.2020 06:00 8,4 C 6,5 C 6,3 C 83 % 1016,9 hPa 0,0 l/m 0,00 h 0,00 h 0 W/m 0,0 km/h (0 Bft) 95,48 %
20.09.2020 07:00 7,8 C 6,3 C 6,1 C 85 % 1016,9 hPa 0,0 l/m 0,00 h 0,00 h 12 W/m 0,0 km/h (0 Bft) 94,86 %
20.09.2020 08:00 7,6 C 8,0 C 7,1 C 90 % 1017,0 hPa 0,0 l/m 0,00 h 0,00 h 35 W/m 0,0 km/h (0 Bft) 96,44 %
20.09.2020 09:00 9,2 C 14,5 C 9,9 C 94 % 1017,2 hPa 0,0 l/m 0,50 h 0,00 h 201 W/m 0,6 km/h (0 Bft) 99,21 %
20.09.2020 10:00 14,5 C 24,0 C 15,9 C 84 % 1017,3 hPa 0,0 l/m 1,00 h 0,00 h 457 W/m 0,6 km/h (0 Bft) 96,01 %
20.09.2020 11:00 19,7 C 27,5 C 16,4 C 63 % 1017,4 hPa 0,0 l/m 1,00 h 0,00 h 574 W/m 5,3 km/h (1 Bft) 97,37 %
20.09.2020 12:00 22,6 C 29,4 C 18,6 C 54 % 1016,9 hPa 0,0 l/m 1,00 h 0,00 h 625 W/m 4,1 km/h (1 Bft) 94,95 %
20.09.2020 13:00 25,1 C 31,3 C 21,0 C 49 % 1016,7 hPa 0,0 l/m 1,00 h 0,00 h 654 W/m 4,7 km/h (1 Bft) 98,00 %
20.09.2020 14:00 26,0 C 30,9 C 21,6 C 48 % 1016,5 hPa 0,0 l/m 1,00 h 0,00 h 595 W/m 4,1 km/h (1 Bft) 98,44 %
20.09.2020 15:00 27,0 C 31,2 C 22,3 C 45 % 1016,2 hPa 0,0 l/m 1,00 h 0,00 h 554 W/m 4,6 km/h (1 Bft) 97,15 %
20.09.2020 16:00 27,4 C 30,8 C 27,2 C 43 % 1015,8 hPa 0,0 l/m 1,00 h 0,00 h 500 W/m 5,3 km/h (1 Bft) 98,96 %
20.09.2020 17:00 26,6 C 27,2 C 23,3 C 41 % 1015,7 hPa 0,0 l/m 0,70 h 0,00 h 266 W/m 7,5 km/h (2 Bft) 94,67 %
20.09.2020 18:00 23,8 C 21,4 C 19,8 C 46 % 1015,8 hPa 0,0 l/m 0,00 h 0,00 h 41 W/m 3,4 km/h (1 Bft) 98,27 %
20.09.2020 19:00 21,5 C 18,6 C 17,5 C 52 % 1016,3 hPa 0,0 l/m 0,00 h 0,00 h 13 W/m 0,1 km/h (0 Bft) 97,21 %
20.09.2020 20:00 19,2 C 16,6 C 15,4 C 57 % 1016,7 hPa 0,0 l/m 0,00 h 0,00 h 0 W/m 0,0 km/h (0 Bft) 95,02 %
20.09.2020 21:00 17,7 C 15,8 C 14,6 C 63 % 1017,1 hPa 0,0 l/m 0,00 h 0,00 h 0 W/m 0,0 km/h (0 Bft) 97,29 %
20.09.2020 22:00 16,5 C 14,6 C 13,7 C 67 % 1017,2 hPa 0,0 l/m 0,00 h 0,00 h 0 W/m 0,3 km/h (0 Bft) 98,08 %
20.09.2020 23:00 15,6 C 14,0 C 13,3 C 70 % 1017,1 hPa 0,0 l/m 0,00 h 0,00 h 0 W/m 0,7 km/h (0 Bft) 98,01 %
Min-Datum _ 20.09.20 20.09.20 20.09.20 19.09.20 20.09.20 - - - - 14.09.20 20.09.20
_ Min-Zeit 08:02 06:38 06:20 16:42 17:16 - - - - 00:00 00:02
Minimum _ 7,5 C 6,1 C 6,1 C 36 % 1015,6 hPa - - - - 0,0 km/h (0 Bft) 15,38 %
Max-Datum _ 15.09.20 15.09.20 15.09.20 14.09.20 17.09.20 14.09.20 14.09.20 14.09.20 20.09.20 17.09.20 14.09.20
_ Max-Zeit 17:10 14:28 16:44 05:10 11:18 00:00 12:08 00:00 13:28 11:48 00:00
Maximum _ 34,9 C 39,4 C 35,0 C 97 % 1028,5 hPa 0,0 l/m 0,07 h 0,00 h 759 W/m 38,6 km/h
W-SW (5 Bft)
100,00 %
Durchschnitt _ 19,2 C 19,8 C 17,1 C 70 % 1021,2 hPa #0,0 l/m #58:48 h #0 min. 361 W/m 5,1 km/h (1 Bft) 97,41 %
© 2020 W. Hausmann